Time;durP1;ratioP1;P1;durP2;ratioP2;P2;SDS_P1;SDS_P2;PMS_P1;PMS_P2;Temp;Humidity;BMP_temperature;BMP_pressure;BME280_temperature;BME280_humidity;BME280_pressure;Samples;Min_cycle;Max_cycle;Signal;HPM_P1;HPM_P2
2024/03/06 00:00:33;;;;;;;152.32;18.40;;;3.70;99.90;;;;;;6151913;23;20083;-80
2024/03/06 00:02:58;;;;;;;18.60;9.77;;;3.60;99.90;;;;;;6167752;23;20005;-80
2024/03/06 00:05:24;;;;;;;155.18;18.70;;;3.60;99.90;;;;;;6209030;23;20014;-80
2024/03/06 00:07:49;;;;;;;100.80;16.92;;;3.70;99.90;;;;;;6209905;23;20008;-80
2024/03/06 00:10:15;;;;;;;44.47;13.02;;;3.60;99.90;;;;;;6206388;23;20012;-80
2024/03/06 00:12:40;;;;;;;17.88;9.75;;;3.60;99.90;;;;;;6161487;23;20012;-80
2024/03/06 00:15:06;;;;;;;146.50;20.80;;;3.60;99.90;;;;;;6179575;23;20004;-80
2024/03/06 00:17:32;;;;;;;142.00;18.73;;;3.50;99.90;;;;;;6180589;23;20100;-80
2024/03/06 00:19:58;;;;;;;81.70;17.55;;;3.50;99.90;;;;;;6180470;23;20019;-80
2024/03/06 00:22:23;;;;;;;46.22;11.68;;;3.50;99.90;;;;;;6155751;23;20009;-80
2024/03/06 00:24:49;;;;;;;185.07;19.95;;;3.50;99.90;;;;;;6155730;23;20027;-80
2024/03/06 00:27:14;;;;;;;225.90;21.05;;;3.50;99.90;;;;;;6155734;23;20076;-81
2024/03/06 00:29:40;;;;;;;240.90;18.48;;;3.50;99.90;;;;;;6180195;23;20036;-80
2024/03/06 00:32:06;;;;;;;214.32;17.55;;;3.40;99.90;;;;;;6179702;23;20350;-80
2024/03/06 00:34:32;;;;;;;267.92;18.55;;;3.40;99.90;;;;;;6155355;23;20020;-80
2024/03/06 00:36:58;;;;;;;142.43;17.00;;;3.30;99.90;;;;;;6155040;23;20380;-80
2024/03/06 00:39:24;;;;;;;32.13;10.27;;;3.30;99.90;;;;;;6179911;23;20034;-81
2024/03/06 00:41:50;;;;;;;10.70;8.88;;;3.40;99.90;;;;;;6156166;23;20448;-80
2024/03/06 00:44:15;;;;;;;12.38;8.40;;;3.50;99.90;;;;;;6179285;23;20052;-80
2024/03/06 00:46:41;;;;;;;14.32;10.10;;;3.60;99.90;;;;;;6178287;23;20013;-79
2024/03/06 00:49:07;;;;;;;13.73;10.73;;;3.70;99.90;;;;;;6204389;23;20013;-79
2024/03/06 00:51:36;;;;;;;158.45;16.65;;;3.80;99.90;;;;;;6177090;23;20023;-80
2024/03/06 00:54:01;;;;;;;76.00;13.23;;;3.60;99.90;;;;;;6154424;23;20261;-81
2024/03/06 00:56:27;;;;;;;41.88;11.75;;;3.60;99.90;;;;;;6180217;23;20076;-80
2024/03/06 00:58:52;;;;;;;121.85;15.13;;;3.60;99.90;;;;;;6180773;23;20008;-80
2024/03/06 01:01:18;;;;;;;129.68;15.73;;;3.50;99.90;;;;;;6161443;23;20106;-80
2024/03/06 01:03:44;;;;;;;189.75;17.52;;;3.50;99.90;;;;;;6173109;23;20063;-80
2024/03/06 01:06:09;;;;;;;212.40;19.30;;;3.40;99.90;;;;;;6182920;23;20441;-79
2024/03/06 01:08:35;;;;;;;11.95;8.93;;;3.30;99.90;;;;;;6159495;23;20013;-80
2024/03/06 01:11:01;;;;;;;11.43;9.23;;;3.20;99.90;;;;;;6180400;23;20009;-80
2024/03/06 01:13:27;;;;;;;88.05;14.90;;;3.30;99.90;;;;;;6180140;23;20534;-80
2024/03/06 01:15:52;;;;;;;167.40;18.65;;;3.40;99.90;;;;;;6180235;23;20122;-80
2024/03/06 01:18:18;;;;;;;226.90;18.63;;;3.30;99.90;;;;;;6179158;23;20638;-79
2024/03/06 01:20:45;;;;;;;27.20;9.25;;;3.20;99.90;;;;;;6161169;23;20413;-80
2024/03/06 01:23:10;;;;;;;139.07;15.77;;;3.30;99.90;;;;;;6177909;23;20020;-80
2024/03/06 01:25:36;;;;;;;128.25;15.05;;;3.30;99.90;;;;;;6185897;23;20012;-80
2024/03/06 01:28:02;;;;;;;57.05;11.15;;;3.20;99.90;;;;;;6180317;23;20146;-80
2024/03/06 01:30:27;;;;;;;134.00;15.32;;;3.20;99.90;;;;;;6155004;23;20001;-80
2024/03/06 01:32:53;;;;;;;61.08;12.63;;;3.20;99.90;;;;;;6168963;23;20731;-80
2024/03/06 01:35:19;;;;;;;29.85;8.77;;;3.20;99.90;;;;;;6162417;23;20631;-79
2024/03/06 01:37:45;;;;;;;22.27;8.88;;;3.20;99.90;;;;;;6180166;23;20004;-79
2024/03/06 01:40:12;;;;;;;106.75;14.02;;;3.20;99.90;;;;;;6181731;23;20350;-79
2024/03/06 01:42:37;;;;;;;41.50;11.15;;;3.10;99.90;;;;;;6202521;23;20020;-79
2024/03/06 01:45:03;;;;;;;135.77;16.60;;;3.10;99.90;;;;;;6234542;22;20019;-80
2024/03/06 01:47:29;;;;;;;76.43;14.13;;;3.10;99.90;;;;;;6188577;23;20012;-80
2024/03/06 01:49:55;;;;;;;80.57;14.48;;;3.00;99.90;;;;;;6196747;22;20521;-79
2024/03/06 01:52:20;;;;;;;47.90;13.45;;;3.00;99.90;;;;;;6217129;23;20038;-80
2024/03/06 01:54:47;;;;;;;12.13;7.93;;;3.00;99.90;;;;;;6210138;23;20088;-80
2024/03/06 01:57:15;;;;;;;13.55;8.85;;;3.00;99.90;;;;;;6212366;23;20370;-79
2024/03/06 01:59:40;;;;;;;96.47;14.15;;;3.00;99.90;;;;;;6196438;23;20408;-80
2024/03/06 02:02:08;;;;;;;129.38;14.98;;;3.10;99.90;;;;;;6186478;23;20087;-80
2024/03/06 02:04:34;;;;;;;108.25;14.10;;;2.90;99.90;;;;;;6211865;23;20344;-79
2024/03/06 02:06:59;;;;;;;189.65;17.88;;;2.90;99.90;;;;;;6202909;23;20082;-80
2024/03/06 02:09:25;;;;;;;68.80;13.88;;;2.80;99.90;;;;;;6212079;23;20016;-79
2024/03/06 02:11:50;;;;;;;19.05;12.25;;;2.60;99.90;;;;;;6212632;23;20457;-79
2024/03/06 02:14:16;;;;;;;21.13;12.63;;;2.50;99.90;;;;;;6211460;23;20653;-79
2024/03/06 02:16:42;;;;;;;47.72;15.07;;;2.40;99.90;;;;;;6209359;23;20044;-79
2024/03/06 02:19:08;;;;;;;22.33;12.27;;;2.40;99.90;;;;;;6208242;23;20016;-80
2024/03/06 02:21:33;;;;;;;12.50;9.00;;;2.50;99.90;;;;;;6210053;23;20023;-79
2024/03/06 02:23:59;;;;;;;10.35;8.05;;;2.70;99.90;;;;;;6186409;23;20008;-79
2024/03/06 02:26:25;;;;;;;11.27;8.77;;;2.80;99.90;;;;;;6211570;23;20067;-79
2024/03/06 02:28:51;;;;;;;13.32;8.65;;;2.70;99.90;;;;;;6211722;23;20062;-79
2024/03/06 02:31:17;;;;;;;149.32;13.95;;;2.60;99.90;;;;;;6211784;23;20007;-80
2024/03/06 02:33:44;;;;;;;10.52;7.40;;;2.50;99.90;;;;;;6211685;23;20112;-80
2024/03/06 02:36:18;;;;;;;17.58;10.48;;;2.60;99.90;;;;;;6197798;23;20016;-80
2024/03/06 02:38:45;;;;;;;15.80;9.30;;;2.60;99.90;;;;;;6187344;23;20015;-80
2024/03/06 02:41:11;;;;;;;22.92;10.07;;;2.60;99.90;;;;;;6185968;23;20020;-80
2024/03/06 02:43:36;;;;;;;183.15;15.25;;;2.60;99.90;;;;;;6181058;23;20016;-80
2024/03/06 02:46:03;;;;;;;231.98;17.00;;;2.50;99.90;;;;;;6180810;23;20038;-80
2024/03/06 02:48:29;;;;;;;193.77;15.15;;;2.30;99.90;;;;;;6207053;23;20435;-79
2024/03/06 02:50:55;;;;;;;127.05;14.35;;;2.20;99.90;;;;;;6181840;23;20047;-80
2024/03/06 02:53:20;;;;;;;170.32;17.38;;;2.10;99.90;;;;;;6206451;23;20092;-80
2024/03/06 02:55:46;;;;;;;178.25;19.23;;;2.10;99.90;;;;;;6181290;23;20477;-79
2024/03/06 02:58:11;;;;;;;188.52;21.10;;;2.20;99.90;;;;;;6180923;23;20098;-79
2024/03/06 03:00:40;;;;;;;98.90;13.30;;;2.20;99.90;;;;;;6192874;22;20069;-79
2024/03/06 03:03:06;;;;;;;12.65;8.20;;;2.30;99.90;;;;;;6181368;23;20015;-79
2024/03/06 03:05:33;;;;;;;76.55;13.85;;;2.20;99.90;;;;;;6203088;23;20013;-80
2024/03/06 03:07:59;;;;;;;10.70;7.80;;;2.30;99.90;;;;;;6179687;22;20001;-80
2024/03/06 03:10:24;;;;;;;19.50;8.48;;;2.20;99.90;;;;;;6210564;23;20016;-80
2024/03/06 03:12:50;;;;;;;24.55;9.90;;;2.20;99.90;;;;;;6177982;23;20106;-79
2024/03/06 03:15:16;;;;;;;130.63;16.55;;;2.20;99.90;;;;;;6160029;23;20027;-80
2024/03/06 03:17:42;;;;;;;19.52;7.97;;;2.30;99.90;;;;;;6202781;23;20335;-80
2024/03/06 03:20:10;;;;;;;18.65;10.10;;;2.30;99.90;;;;;;6179269;23;20323;-79
2024/03/06 03:22:38;;;;;;;34.35;12.15;;;2.50;99.90;;;;;;6180201;23;20565;-79
2024/03/06 03:25:07;;;;;;;22.15;13.32;;;2.50;99.90;;;;;;6178915;23;20012;-80
2024/03/06 03:27:33;;;;;;;17.05;11.65;;;2.50;99.90;;;;;;6180075;23;20465;-79
2024/03/06 03:29:58;;;;;;;10.02;7.15;;;2.50;99.90;;;;;;6177874;23;20115;-79
2024/03/06 03:32:24;;;;;;;16.42;10.90;;;2.50;99.90;;;;;;6187393;23;20008;-80
2024/03/06 03:34:49;;;;;;;17.95;12.40;;;2.50;99.90;;;;;;6205877;23;20024;-79
2024/03/06 03:37:15;;;;;;;18.85;13.25;;;2.50;99.90;;;;;;6210080;22;20036;-80
2024/03/06 03:39:42;;;;;;;23.13;13.57;;;2.50;99.90;;;;;;6161793;22;20017;-80
2024/03/06 03:42:08;;;;;;;22.17;13.23;;;2.60;99.90;;;;;;6211424;22;20019;-80
2024/03/06 03:44:33;;;;;;;21.50;13.40;;;2.60;99.90;;;;;;6185080;23;20024;-80
2024/03/06 03:46:59;;;;;;;24.02;15.85;;;2.50;99.90;;;;;;6206142;23;20530;-80
2024/03/06 03:49:24;;;;;;;18.83;12.25;;;2.60;99.90;;;;;;6193996;23;20012;-79
2024/03/06 03:51:50;;;;;;;16.50;11.32;;;2.60;99.90;;;;;;6210880;22;20000;-80
2024/03/06 03:54:15;;;;;;;19.00;12.48;;;2.70;99.90;;;;;;6178042;23;20008;-80
2024/03/06 03:56:41;;;;;;;15.38;11.27;;;2.70;99.90;;;;;;6201832;23;20024;-79
2024/03/06 03:59:07;;;;;;;13.95;9.63;;;2.80;99.90;;;;;;6179327;23;20012;-80
2024/03/06 04:01:32;;;;;;;17.38;11.27;;;2.80;99.90;;;;;;6202752;23;20043;-80
2024/03/06 04:03:58;;;;;;;14.77;9.88;;;2.90;99.90;;;;;;6179443;23;20009;-80
2024/03/06 04:06:23;;;;;;;15.27;10.18;;;2.90;99.90;;;;;;6177943;23;20465;-80
2024/03/06 04:08:49;;;;;;;14.45;9.75;;;3.00;99.90;;;;;;6178518;23;20013;-80
2024/03/06 04:11:15;;;;;;;15.85;10.57;;;3.00;99.90;;;;;;6171640;22;20075;-81
2024/03/06 04:13:40;;;;;;;21.02;12.70;;;3.00;99.90;;;;;;6152397;23;20019;-80
2024/03/06 04:16:06;;;;;;;31.23;17.80;;;3.00;99.90;;;;;;6177899;23;20442;-80
2024/03/06 04:18:34;;;;;;;29.55;17.88;;;3.00;99.90;;;;;;6177983;23;20066;-80
2024/03/06 04:21:10;;;;;;;32.63;19.15;;;2.80;99.90;;;;;;6190443;22;20004;-80
2024/03/06 04:23:35;;;;;;;15.77;9.90;;;2.90;99.90;;;;;;6207007;23;20350;-80
2024/03/06 04:26:01;;;;;;;17.17;10.05;;;2.90;99.90;;;;;;6177900;23;20036;-79
2024/03/06 04:28:27;;;;;;;15.13;9.85;;;3.00;99.90;;;;;;6178337;23;20095;-79
2024/03/06 04:30:52;;;;;;;15.63;9.88;;;3.10;99.90;;;;;;6184039;23;20394;-80
2024/03/06 04:33:18;;;;;;;29.30;17.75;;;3.10;99.90;;;;;;6178867;23;20012;-80
2024/03/06 04:35:43;;;;;;;30.20;18.38;;;3.10;99.90;;;;;;6171363;22;20029;-80
2024/03/06 04:38:09;;;;;;;14.70;9.15;;;3.10;99.90;;;;;;6177957;23;20000;-80
2024/03/06 04:40:34;;;;;;;26.42;15.80;;;3.10;99.90;;;;;;6203073;23;20012;-80
2024/03/06 04:43:03;;;;;;;28.80;17.17;;;3.10;99.90;;;;;;6201649;23;20316;-80
2024/03/06 04:45:29;;;;;;;29.98;17.48;;;3.00;99.90;;;;;;6227988;22;20007;-80
2024/03/06 04:47:55;;;;;;;26.23;16.85;;;3.00;99.90;;;;;;6189819;23;20087;-80
2024/03/06 04:50:20;;;;;;;32.50;18.50;;;3.00;99.90;;;;;;6208150;23;20062;-80
2024/03/06 04:52:46;;;;;;;30.10;19.35;;;2.90;99.90;;;;;;6200240;22;20102;-80
2024/03/06 04:55:12;;;;;;;35.65;20.13;;;2.90;99.90;;;;;;6207279;22;20012;-80
2024/03/06 04:57:38;;;;;;;36.25;20.55;;;2.90;99.90;;;;;;6207905;22;20043;-80
2024/03/06 05:00:05;;;;;;;34.67;20.58;;;2.90;99.90;;;;;;6201690;22;20016;-80
2024/03/06 05:02:34;;;;;;;37.88;20.90;;;2.90;99.90;;;;;;6232037;22;20070;-79
2024/03/06 05:05:00;;;;;;;35.35;21.45;;;2.90;99.90;;;;;;6209027;23;20036;-80
2024/03/06 05:07:27;;;;;;;37.42;20.35;;;2.80;99.90;;;;;;6208955;23;20016;-80
2024/03/06 05:09:52;;;;;;;42.55;21.95;;;2.70;99.90;;;;;;6206445;22;20019;-80
2024/03/06 05:12:18;;;;;;;38.10;19.88;;;2.70;99.90;;;;;;6207357;22;20008;-80
2024/03/06 05:14:43;;;;;;;26.35;16.42;;;2.60;99.90;;;;;;6233252;22;20016;-80
2024/03/06 05:17:10;;;;;;;40.85;21.38;;;2.60;99.90;;;;;;6206461;22;20369;-79
2024/03/06 05:19:36;;;;;;;37.13;20.08;;;2.60;99.90;;;;;;6208762;22;20331;-80
2024/03/06 05:22:02;;;;;;;41.72;21.80;;;2.50;99.90;;;;;;6233093;22;20083;-80
2024/03/06 05:24:27;;;;;;;25.75;14.32;;;2.50;99.90;;;;;;6233860;22;20032;-79
2024/03/06 05:26:53;;;;;;;36.72;18.63;;;2.50;99.90;;;;;;6232956;22;20335;-79
2024/03/06 05:29:18;;;;;;;23.88;12.52;;;2.70;99.90;;;;;;6233929;22;20737;-80
2024/03/06 05:31:44;;;;;;;136.07;19.02;;;2.70;99.90;;;;;;6234320;22;20012;-80
2024/03/06 05:34:09;;;;;;;105.82;18.63;;;2.90;99.90;;;;;;6234583;22;20032;-80
2024/03/06 05:36:35;;;;;;;15.88;10.05;;;2.80;99.90;;;;;;6209570;22;20020;-80
2024/03/06 05:39:01;;;;;;;30.80;16.23;;;2.80;99.90;;;;;;6210254;22;20012;-80
2024/03/06 05:41:26;;;;;;;21.98;13.60;;;2.70;99.90;;;;;;6209995;23;20338;-79
2024/03/06 05:43:52;;;;;;;26.35;15.43;;;2.60;99.90;;;;;;6208407;22;20050;-79
2024/03/06 05:46:19;;;;;;;37.22;16.05;;;2.60;99.90;;;;;;6209187;22;20001;-80
2024/03/06 05:48:44;;;;;;;28.42;14.15;;;2.60;99.90;;;;;;6234578;22;20008;-80
2024/03/06 05:51:10;;;;;;;28.75;14.27;;;2.60;99.90;;;;;;6232964;22;20485;-80
2024/03/06 05:53:40;;;;;;;27.27;15.75;;;2.70;99.90;;;;;;6233635;22;20384;-80
2024/03/06 05:56:06;;;;;;;26.15;15.63;;;2.60;99.90;;;;;;6208092;22;20521;-80
2024/03/06 05:58:34;;;;;;;38.05;20.73;;;2.60;99.90;;;;;;6210385;22;20493;-80
2024/03/06 06:01:03;;;;;;;35.72;20.35;;;2.60;99.90;;;;;;6227286;23;20008;-80
2024/03/06 06:03:29;;;;;;;47.88;19.75;;;2.40;99.90;;;;;;6211953;23;20091;-80
2024/03/06 06:05:55;;;;;;;74.05;21.88;;;2.30;99.90;;;;;;6211862;23;20011;-80
2024/03/06 06:08:21;;;;;;;37.22;19.83;;;2.30;99.90;;;;;;6212066;22;20138;-80
2024/03/06 06:10:46;;;;;;;42.53;20.42;;;2.20;99.90;;;;;;6237227;22;20040;-80
2024/03/06 06:13:12;;;;;;;35.85;19.63;;;2.10;99.90;;;;;;6209198;22;20396;-81
2024/03/06 06:15:37;;;;;;;38.70;20.27;;;2.10;99.90;;;;;;6211665;22;20490;-80
2024/03/06 06:18:03;;;;;;;45.60;22.77;;;2.00;99.90;;;;;;6211706;22;20049;-80
2024/03/06 06:20:30;;;;;;;41.28;20.83;;;2.10;99.90;;;;;;6237441;23;20004;-80
2024/03/06 06:22:55;;;;;;;28.98;15.23;;;2.10;99.90;;;;;;6210871;23;20004;-80
2024/03/06 06:25:21;;;;;;;35.17;15.27;;;2.20;99.90;;;;;;6236423;22;20049;-80
2024/03/06 06:27:48;;;;;;;71.32;20.63;;;2.40;99.90;;;;;;6211880;22;20530;-80
2024/03/06 06:30:14;;;;;;;53.35;17.90;;;2.30;99.90;;;;;;6236789;22;20090;-80
2024/03/06 06:32:40;;;;;;;25.80;14.70;;;2.20;99.90;;;;;;6237197;22;20097;-80
2024/03/06 06:35:06;;;;;;;42.00;20.75;;;2.30;99.90;;;;;;6210872;22;20500;-79
2024/03/06 06:37:33;;;;;;;44.75;21.80;;;2.30;99.90;;;;;;6236737;22;20437;-80
2024/03/06 06:39:59;;;;;;;39.40;21.38;;;2.20;99.90;;;;;;6210318;23;20355;-78
2024/03/06 06:42:25;;;;;;;42.58;22.17;;;2.10;99.90;;;;;;6234254;22;20008;-79
2024/03/06 06:44:51;;;;;;;42.70;20.58;;;2.00;99.90;;;;;;6185089;23;20021;-80
2024/03/06 06:47:17;;;;;;;41.13;20.98;;;2.00;99.90;;;;;;6152606;23;20062;-79
2024/03/06 06:49:42;;;;;;;44.85;22.65;;;2.00;99.90;;;;;;6154253;23;20086;-80
2024/03/06 06:52:08;;;;;;;49.83;23.08;;;2.00;99.90;;;;;;6178044;23;20012;-80
2024/03/06 06:54:34;;;;;;;57.67;25.02;;;2.10;99.90;;;;;;6152861;23;20427;-80
2024/03/06 06:56:59;;;;;;;182.95;30.02;;;2.10;99.90;;;;;;6178573;23;20012;-81
2024/03/06 06:59:25;;;;;;;34.70;15.80;;;2.10;99.90;;;;;;6177854;23;20055;-81
2024/03/06 07:01:50;;;;;;;220.27;31.25;;;2.30;99.90;;;;;;6179292;23;20423;-79
2024/03/06 07:04:19;;;;;;;46.03;20.33;;;2.40;99.90;;;;;;6153585;23;20009;-81
2024/03/06 07:06:46;;;;;;;54.58;24.02;;;2.50;99.90;;;;;;6122771;23;20016;-79
2024/03/06 07:09:12;;;;;;;61.97;25.27;;;2.60;99.90;;;;;;6149456;23;20012;-81
2024/03/06 07:11:37;;;;;;;91.13;27.73;;;2.70;99.90;;;;;;6178777;23;20588;-80
2024/03/06 07:14:06;;;;;;;52.10;18.27;;;2.70;99.90;;;;;;6153294;23;20012;-80
2024/03/06 07:16:31;;;;;;;68.10;18.02;;;2.70;99.90;;;;;;6179764;23;20028;-81
2024/03/06 07:18:59;;;;;;;138.73;23.20;;;3.00;99.90;;;;;;6178886;23;20334;-81
2024/03/06 07:21:25;;;;;;;187.25;27.45;;;3.10;99.90;;;;;;6179478;23;20566;-81
2024/03/06 07:23:50;;;;;;;126.35;22.35;;;3.30;99.90;;;;;;6153673;23;20009;-81
2024/03/06 07:26:16;;;;;;;33.22;17.88;;;3.40;99.90;;;;;;6178496;23;20000;-81
2024/03/06 07:28:42;;;;;;;104.40;18.75;;;3.40;99.90;;;;;;6176552;23;20087;-80
2024/03/06 07:31:07;;;;;;;112.30;19.83;;;3.50;99.90;;;;;;6177759;23;20031;-80
2024/03/06 07:33:34;;;;;;;141.45;22.48;;;3.60;99.90;;;;;;6153819;23;20341;-80
2024/03/06 07:35:59;;;;;;;296.42;30.70;;;3.60;99.90;;;;;;6177953;23;20385;-80
2024/03/06 07:38:25;;;;;;;435.58;35.30;;;3.70;99.90;;;;;;6153562;23;20013;-80
2024/03/06 07:40:50;;;;;;;174.82;23.73;;;3.80;99.90;;;;;;6177326;23;20013;-81
2024/03/06 07:43:16;;;;;;;176.88;23.70;;;3.80;99.90;;;;;;6181119;22;20001;-81
2024/03/06 07:45:42;;;;;;;250.35;25.58;;;3.90;99.90;;;;;;6212929;22;20020;-81
2024/03/06 07:48:09;;;;;;;252.63;27.52;;;3.90;99.90;;;;;;6211328;22;20311;-80
2024/03/06 07:50:35;;;;;;;61.50;15.93;;;4.00;99.90;;;;;;6196528;23;20099;-81
2024/03/06 07:53:02;;;;;;;123.78;21.70;;;4.10;99.90;;;;;;6222183;22;20457;-81
2024/03/06 07:55:29;;;;;;;207.23;26.42;;;4.20;99.90;;;;;;6241129;22;20008;-80
2024/03/06 07:57:55;;;;;;;70.53;22.38;;;4.30;99.90;;;;;;6215357;22;20092;-80
2024/03/06 08:00:20;;;;;;;30.23;15.18;;;4.40;99.90;;;;;;6213142;22;20035;-81
2024/03/06 08:02:50;;;;;;;54.00;16.77;;;4.50;99.90;;;;;;6212792;22;20015;-80
2024/03/06 08:05:16;;;;;;;56.63;17.45;;;4.60;99.90;;;;;;6193040;23;20389;-80
2024/03/06 08:07:45;;;;;;;41.88;14.48;;;4.70;99.90;;;;;;6212671;22;20015;-80
2024/03/06 08:10:26;;;;;;;51.60;17.40;;;4.80;99.90;;;;;;6220145;22;20008;-81
2024/03/06 08:12:51;;;;;;;34.78;16.50;;;4.90;99.90;;;;;;6226485;22;20353;-82
2024/03/06 08:15:17;;;;;;;43.88;18.35;;;5.00;99.90;;;;;;6237152;22;20008;-81
2024/03/06 08:17:43;;;;;;;30.45;15.63;;;5.20;99.90;;;;;;6237614;22;20016;-81
2024/03/06 08:20:09;;;;;;;370.42;36.85;;;5.20;99.90;;;;;;6237260;22;20022;-81
2024/03/06 08:22:38;;;;;;;69.55;17.75;;;5.30;99.90;;;;;;6213998;22;20022;-81
2024/03/06 08:25:13;;;;;;;292.35;35.60;;;5.30;99.90;;;;;;6186931;22;20016;-81
2024/03/06 08:27:39;;;;;;;142.85;23.58;;;5.50;99.90;;;;;;6211493;22;20012;-80
2024/03/06 08:30:06;;;;;;;364.23;39.67;;;5.50;99.90;;;;;;6212709;22;20022;-80
2024/03/06 08:32:35;;;;;;;76.47;19.75;;;5.60;99.90;;;;;;6212094;22;20046;-81
2024/03/06 08:35:11;;;;;;;359.52;36.33;;;5.80;99.90;;;;;;6182260;23;20102;-80
2024/03/06 08:37:37;;;;;;;;;;;5.80;99.90;;;;;;6190074;22;20020;-81
2024/03/06 08:40:04;;;;;;;39.50;15.10;;;6.10;99.90;;;;;;6240114;22;20296;-82
2024/03/06 08:42:29;;;;;;;140.65;28.63;;;6.10;99.90;;;;;;6188543;22;20008;-81
2024/03/06 08:50:02;;;;;;;42.25;19.23;;;6.40;99.90;;;;;;6266164;22;20027;-77
2024/03/06 08:52:28;;;;;;;596.90;64.47;;;6.60;99.90;;;;;;6239435;22;20456;-77
2024/03/06 08:54:54;;;;;;;51.55;21.25;;;6.80;99.90;;;;;;6213819;22;20015;-77
2024/03/06 08:57:22;;;;;;;113.63;26.38;;;6.90;99.90;;;;;;6238905;22;20069;-77
2024/03/06 08:59:47;;;;;;;68.68;21.80;;;7.10;99.90;;;;;;6240116;22;20397;-77
2024/03/06 09:02:14;;;;;;;480.92;56.65;;;7.20;99.90;;;;;;6238975;22;20070;-77
2024/03/06 09:04:41;;;;;;;161.95;35.30;;;7.50;99.90;;;;;;6238776;22;20020;-77
2024/03/06 09:07:07;;;;;;;163.45;32.47;;;7.60;99.90;;;;;;6212477;22;20092;-77
2024/03/06 09:09:33;;;;;;;77.65;26.85;;;7.60;99.90;;;;;;6240470;22;20706;-78
2024/03/06 09:12:04;;;;;;;57.28;23.73;;;7.90;99.90;;;;;;6238587;22;20034;-77
2024/03/06 09:14:33;;;;;;;46.80;20.98;;;7.90;99.90;;;;;;6239740;22;20039;-77
2024/03/06 09:16:58;;;;;;;90.43;27.73;;;8.10;99.90;;;;;;6235004;22;20010;-78
2024/03/06 09:19:24;;;;;;;84.40;31.00;;;8.20;99.90;;;;;;6240639;22;20007;-78
2024/03/06 09:21:52;;;;;;;76.50;30.42;;;8.40;99.90;;;;;;6240876;22;20019;-78
2024/03/06 09:24:17;;;;;;;47.13;21.17;;;8.50;99.90;;;;;;6238948;22;20008;-77
2024/03/06 09:26:47;;;;;;;54.13;23.70;;;8.50;99.90;;;;;;6239014;22;20022;-77
2024/03/06 09:29:12;;;;;;;99.93;36.25;;;8.60;99.90;;;;;;6225082;22;20077;-77
2024/03/06 09:31:38;;;;;;;117.28;39.92;;;8.90;99.90;;;;;;6217202;23;20457;-77
2024/03/06 09:34:03;;;;;;;87.53;35.15;;;9.10;99.90;;;;;;6180990;23;20016;-77
2024/03/06 09:36:29;;;;;;;83.82;33.63;;;9.30;99.90;;;;;;6206420;23;20019;-83
2024/03/06 09:38:55;;;;;;;41.13;20.73;;;9.40;99.90;;;;;;6207773;23;20089;-82
2024/03/06 09:41:24;;;;;;;64.13;26.98;;;9.40;99.90;;;;;;6207545;23;20008;-83
2024/03/06 09:43:50;;;;;;;70.85;31.17;;;9.60;99.90;;;;;;6207305;23;20012;-82
2024/03/06 09:46:15;;;;;;;85.72;36.25;;;9.90;99.90;;;;;;6206924;22;20697;-83
2024/03/06 09:48:45;;;;;;;49.30;23.35;;;10.10;99.90;;;;;;6183874;23;20023;-83
2024/03/06 09:51:12;;;;;;;43.35;20.90;;;10.10;99.90;;;;;;6233244;22;20011;-77
2024/03/06 09:53:39;;;;;;;91.57;31.73;;;10.20;99.90;;;;;;6239139;22;20042;-77
2024/03/06 09:56:05;;;;;;;65.18;30.83;;;10.30;99.90;;;;;;6214278;22;20016;-77
2024/03/06 09:58:31;;;;;;;52.08;26.02;;;10.40;99.90;;;;;;6224473;22;20016;-77
2024/03/06 10:00:58;;;;;;;45.80;24.42;;;10.50;99.90;;;;;;6213895;22;20035;-77
2024/03/06 10:03:23;;;;;;;47.95;23.38;;;10.50;99.90;;;;;;6238874;22;20563;-77
2024/03/06 10:05:49;;;;;;;61.22;29.65;;;10.60;99.90;;;;;;6212785;22;20003;-77
2024/03/06 10:08:16;;;;;;;65.15;31.35;;;10.70;99.90;;;;;;6238369;22;20004;-77
2024/03/06 10:10:42;;;;;;;49.38;25.17;;;10.90;99.90;;;;;;6185459;22;20012;-77
2024/03/06 10:13:08;;;;;;;37.25;18.52;;;10.90;99.90;;;;;;6236186;22;20004;-77
2024/03/06 10:15:36;;;;;;;35.42;18.92;;;10.70;99.90;;;;;;6187227;22;20090;-77
2024/03/06 10:18:12;;;;;;;54.92;27.00;;;10.60;99.90;;;;;;6189782;23;20362;-78
2024/03/06 10:20:43;;;;;;;47.03;24.33;;;10.60;99.90;;;;;;6211096;23;20020;-77
2024/03/06 10:23:09;;;;;;;35.58;19.85;;;10.60;99.90;;;;;;6211740;23;20012;-77
2024/03/06 10:25:37;;;;;;;45.88;25.50;;;10.50;99.90;;;;;;6206255;23;20457;-77
2024/03/06 10:28:10;;;;;;;54.58;26.40;;;10.50;99.90;;;;;;6167801;23;20016;-77
2024/03/06 10:30:42;;;;;;;38.05;18.73;;;10.50;99.90;;;;;;6161909;23;20070;-77
2024/03/06 10:33:08;;;;;;;48.05;24.73;;;10.60;99.90;;;;;;6165978;23;20019;-77
2024/03/06 10:35:34;;;;;;;51.83;28.45;;;10.60;99.90;;;;;;6223066;22;20757;-77
2024/03/06 10:38:03;;;;;;;38.85;20.30;;;10.60;99.90;;;;;;6241599;22;20049;-77
2024/03/06 10:40:31;;;;;;;27.90;15.75;;;10.80;99.90;;;;;;6216054;22;20036;-78
2024/03/06 10:42:58;;;;;;;36.40;18.33;;;10.80;99.90;;;;;;6216187;22;20038;-77
2024/03/06 10:45:25;;;;;;;40.83;23.02;;;10.80;99.90;;;;;;6241577;22;20008;-77
2024/03/06 10:47:51;;;;;;;43.92;23.80;;;10.90;99.90;;;;;;6241426;22;20019;-77
2024/03/06 10:50:17;;;;;;;31.48;18.08;;;11.00;99.90;;;;;;6215447;22;20360;-77
2024/03/06 10:52:43;;;;;;;33.75;18.75;;;11.10;99.90;;;;;;6216548;22;20016;-77
2024/03/06 10:55:11;;;;;;;28.73;17.05;;;11.20;99.90;;;;;;6215548;22;20015;-78
2024/03/06 10:57:37;;;;;;;31.38;17.45;;;11.40;99.90;;;;;;6242222;22;20038;-77
2024/03/06 11:00:03;;;;;;;45.50;25.85;;;11.70;99.90;;;;;;6242055;22;20011;-77
2024/03/06 11:02:29;;;;;;;43.78;24.45;;;12.10;99.90;;;;;;6186753;23;20087;-86
2024/03/06 11:04:54;;;;;;;28.08;16.77;;;11.40;99.90;;;;;;6190752;23;20020;-87
2024/03/06 11:07:20;;;;;;;27.73;15.77;;;11.70;99.90;;;;;;6192137;23;20036;-77
2024/03/06 11:09:48;;;;;;;25.27;14.77;;;12.30;99.90;;;;;;6188471;23;20358;-78
2024/03/06 11:12:34;;;;;;;30.13;16.98;;;12.90;99.90;;;;;;6212044;22;20123;-78
2024/03/06 11:15:00;;;;;;;31.73;18.67;;;12.80;99.90;;;;;;6213905;22;20433;-78
2024/03/06 11:17:27;;;;;;;32.05;17.90;;;13.20;99.90;;;;;;6215405;22;20381;-77
2024/03/06 11:20:06;;;;;;;29.73;17.52;;;13.70;99.90;;;;;;6240059;22;20016;-76
2024/03/06 11:23:08;;;;;;;31.42;19.45;;;13.80;99.90;;;;;;6264905;22;20660;-76
2024/03/06 11:25:48;;;;;;;36.78;19.92;;;13.30;99.90;;;;;;6237364;22;20361;-77
2024/03/06 11:28:18;;;;;;;34.35;18.52;;;13.70;99.90;;;;;;6236921;22;20043;-77
2024/03/06 11:31:06;;;;;;;34.65;21.63;;;13.80;99.90;;;;;;6213921;22;20357;-77
2024/03/06 11:33:37;;;;;;;31.92;16.90;;;13.80;99.90;;;;;;6187246;22;20552;-76
2024/03/06 11:36:34;;;;;;;27.30;16.73;;;13.40;99.90;;;;;;6212001;22;20441;-77
2024/03/06 11:39:03;;;;;;;22.40;13.98;;;14.60;99.90;;;;;;6238207;22;20085;-77
2024/03/06 11:41:59;;;;;;;21.15;14.15;;;14.60;99.90;;;;;;6213408;22;20086;-77
2024/03/06 11:44:28;;;;;;;30.83;18.50;;;14.40;99.90;;;;;;6195200;23;20004;-77
2024/03/06 11:47:03;;;;;;;23.45;14.18;;;13.60;99.90;;;;;;6206064;22;20011;-76
2024/03/06 11:49:32;;;;;;;20.80;11.55;;;12.60;99.90;;;;;;6237279;22;20449;-77
2024/03/06 11:52:05;;;;;;;20.13;13.07;;;12.60;99.90;;;;;;6237913;22;20012;-77
2024/03/06 11:54:31;;;;;;;20.23;12.02;;;12.60;99.90;;;;;;6235994;22;20015;-77
2024/03/06 11:57:00;;;;;;;23.08;13.35;;;12.40;99.90;;;;;;6238607;22;20065;-77
2024/03/06 11:59:27;;;;;;;15.52;11.40;;;12.50;99.90;;;;;;6212255;22;20011;-77
2024/03/06 12:01:53;;;;;;;15.05;10.63;;;12.90;99.90;;;;;;6187484;23;20173;-76
2024/03/06 12:04:20;;;;;;;19.15;10.70;;;13.20;99.90;;;;;;6183556;23;20012;-77
2024/03/06 12:06:46;;;;;;;18.05;11.18;;;13.60;99.90;;;;;;6186274;23;20012;-77
2024/03/06 12:09:11;;;;;;;20.98;11.95;;;13.30;99.90;;;;;;6212425;23;20042;-77
2024/03/06 12:11:39;;;;;;;14.85;9.00;;;12.90;99.90;;;;;;6185743;23;20353;-77
2024/03/06 12:14:05;;;;;;;15.90;11.27;;;13.80;99.90;;;;;;6210595;23;20346;-77
2024/03/06 12:16:30;;;;;;;35.17;21.55;;;14.50;99.90;;;;;;6184210;23;20020;-77
2024/03/06 12:18:59;;;;;;;32.20;22.45;;;14.00;99.90;;;;;;6184723;23;20066;-77
2024/03/06 12:21:31;;;;;;;38.10;24.60;;;13.70;99.90;;;;;;6187313;23;20023;-88
2024/03/06 12:24:07;;;;;;;37.63;24.65;;;13.50;99.90;;;;;;6219523;23;20016;-86
2024/03/06 12:26:36;;;;;;;36.72;23.75;;;13.50;99.90;;;;;;6246047;22;20008;-88
2024/03/06 12:29:09;;;;;;;38.00;22.52;;;13.40;99.90;;;;;;6251782;22;20344;-85
2024/03/06 12:31:41;;;;;;;22.13;13.90;;;13.40;99.90;;;;;;6249303;22;20015;-87
2024/03/06 12:34:07;;;;;;;36.88;21.10;;;13.60;99.90;;;;;;6221296;22;20604;-88
2024/03/06 12:36:33;;;;;;;32.47;20.85;;;13.70;99.90;;;;;;6198788;22;20127;-89